Leet, West Virginia
Current Conditions -  °F | °C
As of 10:55 AM on Monday 24 Nov 2014 (Local Time) from KSJS Reporting Station
Broken Clouds Broken Clouds  
Wind Chill: 68°   Ceiling: 5000
Heat Index: 68°   Visibility: 10mi
Dew Point: 47°   Wind: 21mph
Humidity: 48%   Direction: 230°SW
Pressure: 29.57"   Gusts: 36mph
Location:  37.9989°N, 82.1851°W
Report Text: KSJS 241555Z AUTO 23018G31KT 200V260 10SM BKN050 BKN070 20/09 A2957 RMK AO2 T01990086
Loading
Personal Weather Stations






























Interactive Weather Map New forecast layout! Learn more

10-Day Weather Forecast

Advertisements
Track Severe Weather on mobile